Time;durP1;ratioP1;P1;durP2;ratioP2;P2;SDS_P1;SDS_P2;PMS_P1;PMS_P2;Temp;Humidity;BMP_temperature;BMP_pressure;BME280_temperature;BME280_humidity;BME280_pressure;Samples;Min_cycle;Max_cycle;Signal;HPM_P1;HPM_P2
2022/03/20 00:02:22;;;;;;;;;;;3.40;99.90;;;;;;5072830;28;19917;-82
2022/03/20 00:04:47;;;;;;;;;;;3.40;99.90;;;;;;5071168;28;19951;-82
2022/03/20 00:07:13;;;;;;;;;;;3.40;99.90;;;;;;5049660;28;19928;-82
2022/03/20 00:09:38;;;;;;;;;;;3.30;99.90;;;;;;5062774;28;19917;-82
2022/03/20 00:12:04;;;;;;;;;;;3.30;99.90;;;;;;5060301;28;19905;-82
2022/03/20 00:14:30;;;;;;;;;;;3.30;99.90;;;;;;5069103;28;19913;-82
2022/03/20 00:16:55;;;;;;;;;;;3.40;99.70;;;;;;5070337;28;19923;-82
2022/03/20 00:19:21;;;;;;;;;;;3.40;99.70;;;;;;5052930;28;19921;-82
2022/03/20 00:21:46;;;;;;;;;;;3.40;99.70;;;;;;5070733;28;20298;-82
2022/03/20 00:24:12;;;;;;;;;;;3.30;99.90;;;;;;5067062;28;20224;-82
2022/03/20 00:26:39;;;;;;;;;;;3.30;99.70;;;;;;5055525;28;20299;-82
2022/03/20 00:29:06;;;;;;;;;;;3.30;99.00;;;;;;5052854;28;19921;-82
2022/03/20 00:31:33;;;;;;;;;;;3.30;99.80;;;;;;5059804;28;19917;-82
2022/03/20 00:33:59;;;;;;;;;;;3.30;99.50;;;;;;5054587;28;19952;-82
2022/03/20 00:36:25;;;;;;;;;;;3.30;99.40;;;;;;5055897;28;19916;-82
2022/03/20 00:38:50;;;;;;;;;;;3.30;99.30;;;;;;5054137;28;19920;-82
2022/03/20 00:41:16;;;;;;;;;;;3.30;98.70;;;;;;5056484;28;19921;-82
2022/03/20 00:43:41;;;;;;;;;;;3.30;99.00;;;;;;5046977;28;19917;-81
2022/03/20 00:46:08;;;;;;;;;;;3.30;98.90;;;;;;5070868;28;19912;-82
2022/03/20 00:48:34;;;;;;;;;;;3.30;99.00;;;;;;5070961;28;20341;-81
2022/03/20 00:51:03;;;;;;;;;;;3.30;98.90;;;;;;5052709;28;19931;-82
2022/03/20 00:53:32;;;;;;;;;;;3.30;98.80;;;;;;5047334;28;19924;-82
2022/03/20 00:55:57;;;;;;;;;;;3.20;98.50;;;;;;5049404;28;19921;-82
2022/03/20 00:58:23;;;;;;;;;;;3.20;98.30;;;;;;5062860;28;19923;-82
2022/03/20 01:00:50;;;;;;;;;;;3.10;98.60;;;;;;5059284;28;19917;-82
2022/03/20 01:03:16;;;;;;;;;;;3.10;99.00;;;;;;5050565;28;19930;-82
2022/03/20 01:05:42;;;;;;;;;;;3.10;98.80;;;;;;5069906;28;19956;-82
2022/03/20 01:08:07;;;;;;;;;;;3.00;98.90;;;;;;5056280;28;19935;-82
2022/03/20 01:10:33;;;;;;;;;;;3.00;98.80;;;;;;5071616;28;19917;-82
2022/03/20 01:12:58;;;;;;;;;;;3.00;98.90;;;;;;5056893;28;19924;-81
2022/03/20 01:15:24;;;;;;;;;;;3.00;98.60;;;;;;5064019;28;20264;-82
2022/03/20 01:17:50;;;;;;;;;;;3.00;98.90;;;;;;5059153;28;19940;-82
2022/03/20 01:20:15;;;;;;;;;;;3.00;99.00;;;;;;5056635;28;19947;-82
2022/03/20 01:22:41;;;;;;;;;;;3.00;98.80;;;;;;5055913;28;19930;-82
2022/03/20 01:25:07;;;;;;;;;;;2.90;99.20;;;;;;5063487;28;20272;-81
2022/03/20 01:27:33;;;;;;;;;;;3.00;98.90;;;;;;5074771;28;19927;-82
2022/03/20 01:29:58;;;;;;;;;;;3.00;99.50;;;;;;5073741;28;19900;-82
2022/03/20 01:32:26;;;;;;;;;;;2.90;99.90;;;;;;5084128;28;20287;-81
2022/03/20 01:34:52;;;;;;;;;;;2.90;99.40;;;;;;5068554;28;19923;-82
2022/03/20 01:37:18;;;;;;;;;;;2.80;99.60;;;;;;5066095;28;19983;-82
2022/03/20 01:39:43;;;;;;;;;;;2.70;99.20;;;;;;5056571;28;20322;-82
2022/03/20 01:42:09;;;;;;;;;;;2.70;99.40;;;;;;5072951;28;19913;-82
2022/03/20 01:44:35;;;;;;;;;;;2.70;99.30;;;;;;5050259;28;19924;-82
2022/03/20 01:47:02;;;;;;;;;;;2.70;99.10;;;;;;5056787;28;20476;-82
2022/03/20 01:49:27;;;;;;;;;;;2.70;98.80;;;;;;5041153;28;19920;-82
2022/03/20 01:52:11;;;;;;;;;;;2.60;99.10;;;;;;5064688;28;19927;-82
2022/03/20 01:54:44;;;;;;;;;;;2.60;98.90;;;;;;5069562;28;19916;-82
2022/03/20 01:57:12;;;;;;;;;;;2.60;98.40;;;;;;5059071;28;19913;-82
2022/03/20 01:59:38;;;;;;;;;;;2.60;98.20;;;;;;5069328;28;19912;-82
2022/03/20 02:02:04;;;;;;;;;;;2.70;97.30;;;;;;5053793;28;19980;-82
2022/03/20 02:04:30;;;;;;;;;;;2.70;97.60;;;;;;5054449;28;19917;-82
2022/03/20 02:06:56;;;;;;;;;;;2.70;97.40;;;;;;5062125;28;19923;-82
2022/03/20 02:09:21;;;;;;;;;;;2.80;96.80;;;;;;5061062;28;19916;-82
2022/03/20 02:11:47;;;;;;;;;;;2.80;96.50;;;;;;5051937;28;19924;-82
2022/03/20 02:14:13;;;;;;;;;;;2.80;96.20;;;;;;5075906;28;19913;-82
2022/03/20 02:16:39;;;;;;;;;;;2.80;96.30;;;;;;5078441;28;19954;-82
2022/03/20 02:19:07;;;;;;;;;;;2.80;96.00;;;;;;5051793;28;20016;-82
2022/03/20 02:21:39;;;;;;;;;;;2.90;95.70;;;;;;5079619;28;19921;-82
2022/03/20 02:24:05;;;;;;;;;;;2.90;95.50;;;;;;5066385;28;19917;-82
2022/03/20 02:26:31;;;;;;;;;;;2.80;94.90;;;;;;5072108;28;19917;-81
2022/03/20 02:28:58;;;;;;;;;;;2.80;94.40;;;;;;5058623;28;20401;-82
2022/03/20 02:31:23;;;;;;;;;;;2.80;94.10;;;;;;5074308;28;19912;-82
2022/03/20 02:33:49;;;;;;;;;;;2.80;93.90;;;;;;5071258;28;19939;-82
2022/03/20 02:36:14;;;;;;;;;;;2.70;94.10;;;;;;5044400;28;19918;-82
2022/03/20 02:38:40;;;;;;;;;;;2.70;94.00;;;;;;5061384;28;19917;-82
2022/03/20 02:41:14;;;;;;;;;;;2.60;94.30;;;;;;5069325;28;20127;-82
2022/03/20 02:43:52;;;;;;;;;;;2.50;94.70;;;;;;5049343;28;19979;-82
2022/03/20 02:46:18;;;;;;;;;;;2.40;94.10;;;;;;5073486;28;19913;-81
2022/03/20 02:48:45;;;;;;;;;;;2.40;94.50;;;;;;5046871;28;19978;-82
2022/03/20 02:51:11;;;;;;;;;;;2.30;95.20;;;;;;5073736;28;20382;-81
2022/03/20 02:53:37;;;;;;;;;;;2.20;95.10;;;;;;5056692;28;19920;-82
2022/03/20 02:56:03;;;;;;;;;;;2.20;95.90;;;;;;5057167;28;19979;-81
2022/03/20 02:58:29;;;;;;;;;;;2.20;95.70;;;;;;5065245;28;19969;-82
2022/03/20 03:00:55;;;;;;;;;;;2.10;96.30;;;;;;5066477;28;19963;-82
2022/03/20 03:03:21;;;;;;;;;;;2.10;96.20;;;;;;5062881;28;19923;-82
2022/03/20 03:05:47;;;;;;;;;;;2.10;95.90;;;;;;5047895;28;19945;-82
2022/03/20 03:10:57;;;;;;;;;;;2.00;96.30;;;;;;5071022;28;19919;-81
2022/03/20 03:13:23;;;;;;;;;;;2.00;96.20;;;;;;5072747;28;19936;-81
2022/03/20 03:15:50;;;;;;;;;;;2.00;95.80;;;;;;5067181;28;19940;-82
2022/03/20 03:18:16;;;;;;;;;;;2.00;96.10;;;;;;5072392;28;19917;-82
2022/03/20 03:20:41;;;;;;;;;;;2.10;96.40;;;;;;5057566;28;19921;-82
2022/03/20 03:23:07;;;;;;;;;;;2.10;97.00;;;;;;5062926;28;19921;-81
2022/03/20 03:25:33;;;;;;;;;;;2.10;96.60;;;;;;5080686;28;19919;-81
2022/03/20 03:27:59;;;;;;;;;;;2.10;96.50;;;;;;5053893;28;19921;-82
2022/03/20 03:30:25;;;;;;;;;;;2.10;96.20;;;;;;5051394;28;19923;-82
2022/03/20 03:32:51;;;;;;;;;;;2.20;95.90;;;;;;5071341;28;19920;-82
2022/03/20 03:38:02;;;;;;;;;;;2.30;95.00;;;;;;5072213;28;19943;-81
2022/03/20 03:40:27;;;;;;;;;;;2.30;94.90;;;;;;5047844;28;19925;-82
2022/03/20 03:42:53;;;;;;;;;;;2.30;94.80;;;;;;5071755;28;20343;-82
2022/03/20 03:45:19;;;;;;;;;;;2.30;94.60;;;;;;5055819;28;19994;-82
2022/03/20 03:47:44;;;;;;;;;;;2.40;94.10;;;;;;5076259;28;19924;-82
2022/03/20 03:50:10;;;;;;;;;;;2.40;93.80;;;;;;5068909;28;19919;-82
2022/03/20 03:52:39;;;;;;;;;;;2.50;93.00;;;;;;5063478;28;19935;-82
2022/03/20 03:55:05;;;;;;;;;;;2.50;92.70;;;;;;5051768;28;19916;-82
2022/03/20 03:57:31;;;;;;;;;;;2.60;92.30;;;;;;5045168;28;20027;-82
2022/03/20 03:59:56;;;;;;;;;;;2.60;92.90;;;;;;5049025;28;19921;-82
2022/03/20 04:02:22;;;;;;;;;;;2.60;92.20;;;;;;5054150;28;19916;-82
2022/03/20 04:04:48;;;;;;;;;;;2.60;92.40;;;;;;5064399;28;19935;-82
2022/03/20 04:07:17;;;;;;;;;;;2.60;91.60;;;;;;5054543;28;19921;-81
2022/03/20 04:09:43;;;;;;;;;;;2.60;91.20;;;;;;5058819;28;19980;-81
2022/03/20 04:12:09;;;;;;;;;;;2.60;91.20;;;;;;5056758;28;19987;-81
2022/03/20 04:14:35;;;;;;;;;;;2.70;91.40;;;;;;5041454;28;20022;-81
2022/03/20 04:17:00;;;;;;;;;;;2.70;91.10;;;;;;5045783;28;19921;-82
2022/03/20 04:19:26;;;;;;;;;;;2.70;90.20;;;;;;5036084;28;20007;-82
2022/03/20 04:21:51;;;;;;;;;;;2.80;88.90;;;;;;5047343;28;20306;-82
2022/03/20 04:24:17;;;;;;;;;;;2.90;90.20;;;;;;5070616;28;19913;-82
2022/03/20 04:26:44;;;;;;;;;;;2.90;90.10;;;;;;5040880;28;20015;-82
2022/03/20 04:29:10;;;;;;;;;;;2.90;88.80;;;;;;5047713;28;19928;-82
2022/03/20 04:31:36;;;;;;;;;;;2.90;90.10;;;;;;5063753;28;20286;-82
2022/03/20 04:34:04;;;;;;;;;;;3.00;89.40;;;;;;5063747;28;19919;-82
2022/03/20 04:36:30;;;;;;;;;;;3.00;88.80;;;;;;5048145;28;19913;-82
2022/03/20 04:38:56;;;;;;;;;;;3.00;87.30;;;;;;5059067;28;19920;-81
2022/03/20 04:41:23;;;;;;;;;;;3.00;87.80;;;;;;5044951;28;20003;-81
2022/03/20 04:43:49;;;;;;;;;;;3.00;86.30;;;;;;5047808;28;19921;-81
2022/03/20 04:46:15;;;;;;;;;;;3.00;86.50;;;;;;5035708;28;20342;-82
2022/03/20 04:59:39;;;;;;;;;;;3.20;82.40;;;;;;5062685;28;19919;-81
2022/03/20 05:02:04;;;;;;;;;;;3.20;81.20;;;;;;5053212;28;19912;-81
2022/03/20 05:04:30;;;;;;;;;;;3.20;80.30;;;;;;5036317;28;19990;-81
2022/03/20 05:06:56;;;;;;;;;;;3.30;80.00;;;;;;5049427;28;19940;-82
2022/03/20 05:14:50;;;;;;;;;;;3.30;80.50;;;;;;5069338;28;20045;-82
2022/03/20 05:17:16;;;;;;;;;;;3.40;80.50;;;;;;5036677;28;19951;-81
2022/03/20 05:19:41;;;;;;;;;;;3.40;80.20;;;;;;5061267;28;20463;-81
2022/03/20 05:22:10;;;;;;;;;;;3.40;79.60;;;;;;5067309;28;19916;-81
2022/03/20 05:24:36;;;;;;;;;;;3.40;79.70;;;;;;5055353;28;19929;-81
2022/03/20 05:27:02;;;;;;;;;;;3.40;79.50;;;;;;5061918;28;19913;-82
2022/03/20 05:29:27;;;;;;;;;;;3.50;79.70;;;;;;5043754;28;19931;-81
2022/03/20 05:31:53;;;;;;;;;;;3.50;78.80;;;;;;5064382;28;20004;-81
2022/03/20 05:34:19;;;;;;;;;;;3.50;76.90;;;;;;5068360;28;20255;-81
2022/03/20 05:36:45;;;;;;;;;;;3.50;76.40;;;;;;5046409;28;19917;-81
2022/03/20 05:39:11;;;;;;;;;;;3.60;75.50;;;;;;5053881;28;19983;-81
2022/03/20 05:41:49;;;;;;;;;;;3.60;75.40;;;;;;5054998;28;19966;-81
2022/03/20 05:44:16;;;;;;;;;;;3.60;75.00;;;;;;5056138;28;20397;-82
2022/03/20 05:46:42;;;;;;;;;;;3.70;75.40;;;;;;5043574;28;20344;-82
2022/03/20 05:49:07;;;;;;;;;;;3.70;74.00;;;;;;5062377;28;20007;-81
2022/03/20 05:51:34;;;;;;;;;;;3.80;74.90;;;;;;5040025;28;19921;-82
2022/03/20 05:54:00;;;;;;;;;;;3.80;74.60;;;;;;5051942;28;20409;-81
2022/03/20 05:59:10;;;;;;;;;;;3.80;72.40;;;;;;5055878;28;19920;-81
2022/03/20 06:01:35;;;;;;;;;;;3.80;71.60;;;;;;5035730;28;19920;-82
2022/03/20 06:04:03;;;;;;;;;;;3.80;72.70;;;;;;5042790;28;19924;-81
2022/03/20 06:06:29;;;;;;;;;;;3.80;73.20;;;;;;5058294;28;19913;-81
2022/03/20 06:08:55;;;;;;;;;;;3.80;71.70;;;;;;5067578;28;19927;-81
2022/03/20 06:11:21;;;;;;;;;;;3.90;72.30;;;;;;5041511;28;19917;-81
2022/03/20 06:13:48;;;;;;;;;;;3.90;72.50;;;;;;5038423;28;19971;-81
2022/03/20 06:16:17;;;;;;;;;;;3.90;72.30;;;;;;5057777;28;20330;-81
2022/03/20 06:18:43;;;;;;;;;;;3.90;73.10;;;;;;5045709;28;19917;-82
2022/03/20 06:21:12;;;;;;;;;;;3.90;73.90;;;;;;5059131;28;19913;-81
2022/03/20 06:23:38;;;;;;;;;;;4.00;74.20;;;;;;5043306;28;19924;-81
2022/03/20 06:26:04;;;;;;;;;;;4.00;74.00;;;;;;5052612;28;20235;-82
2022/03/20 06:28:30;;;;;;;;;;;4.00;72.20;;;;;;5048297;28;19924;-81
2022/03/20 06:30:56;;;;;;;;;;;4.00;72.10;;;;;;5053690;28;19913;-81
2022/03/20 06:33:25;;;;;;;;;;;4.10;72.50;;;;;;5051359;28;19920;-81
2022/03/20 06:35:51;;;;;;;;;;;4.10;74.80;;;;;;5059861;28;19962;-81
2022/03/20 06:38:17;;;;;;;;;;;4.10;73.70;;;;;;5055921;28;19956;-82
2022/03/20 06:40:42;;;;;;;;;;;4.20;73.40;;;;;;5046451;28;19956;-82
2022/03/20 06:43:08;;;;;;;;;;;4.20;72.80;;;;;;5048727;28;20325;-81
2022/03/20 06:45:34;;;;;;;;;;;4.30;72.50;;;;;;5052565;28;19952;-82
2022/03/20 06:48:00;;;;;;;;;;;4.30;72.80;;;;;;5064124;28;19948;-82
2022/03/20 06:50:25;;;;;;;;;;;4.40;73.50;;;;;;5058790;28;20294;-81
2022/03/20 06:52:51;;;;;;;;;;;4.40;72.80;;;;;;5046762;28;19970;-82
2022/03/20 06:55:18;;;;;;;;;;;4.60;71.90;;;;;;5046099;28;19921;-82
2022/03/20 06:57:45;;;;;;;;;;;4.60;71.10;;;;;;5055175;28;19920;-82
2022/03/20 07:00:11;;;;;;;;;;;4.70;71.10;;;;;;5056685;28;20299;-83
2022/03/20 07:02:37;;;;;;;;;;;4.80;70.10;;;;;;5057329;28;19944;-82
2022/03/20 07:05:05;;;;;;;;;;;4.90;69.90;;;;;;5052676;28;19935;-81
2022/03/20 07:07:34;;;;;;;;;;;4.90;68.90;;;;;;5060602;28;20422;-81
2022/03/20 07:09:59;;;;;;;;;;;5.00;69.20;;;;;;5067591;28;19913;-82
2022/03/20 07:12:25;;;;;;;;;;;5.10;68.30;;;;;;5057445;28;19939;-82
2022/03/20 07:14:50;;;;;;;;;;;5.20;68.00;;;;;;5048621;28;20276;-82
2022/03/20 07:17:16;;;;;;;;;;;5.30;67.80;;;;;;5050227;28;19925;-82
2022/03/20 07:19:45;;;;;;;;;;;5.30;68.10;;;;;;5053046;28;19913;-82
2022/03/20 07:22:15;;;;;;;;;;;5.50;69.20;;;;;;5061084;28;19920;-82
2022/03/20 07:24:41;;;;;;;;;;;5.60;68.50;;;;;;5045292;28;19928;-82
2022/03/20 07:29:51;;;;;;;;;;;6.10;67.60;;;;;;5074449;28;19944;-82
2022/03/20 07:32:21;;;;;;;;;;;6.30;64.80;;;;;;5057020;28;20330;-81
2022/03/20 07:34:48;;;;;;;;;;;6.50;63.40;;;;;;5046065;28;20318;-82
2022/03/20 07:37:17;;;;;;;;;;;6.70;62.40;;;;;;5037854;28;19921;-82
2022/03/20 07:39:46;;;;;;;;;;;6.80;61.30;;;;;;5056241;28;19935;-82
2022/03/20 07:42:13;;;;;;;;;;;6.90;61.10;;;;;;5058777;28;19975;-82
2022/03/20 07:44:39;;;;;;;;;;;6.90;61.70;;;;;;5057038;28;20000;-84
2022/03/20 07:47:08;;;;;;;;;;;7.00;61.30;;;;;;5064517;28;19917;-83
2022/03/20 07:49:34;;;;;;;;;;;7.00;61.10;;;;;;5066111;28;19916;-82
2022/03/20 07:52:00;;;;;;;;;;;7.00;61.50;;;;;;5056768;28;19924;-82
2022/03/20 07:54:26;;;;;;;;;;;7.00;61.90;;;;;;5056926;28;19912;-82
2022/03/20 07:56:51;;;;;;;;;;;7.00;61.40;;;;;;5063181;28;20099;-82
2022/03/20 07:59:17;;;;;;;;;;;7.00;62.20;;;;;;5067648;28;19940;-82
2022/03/20 08:01:43;;;;;;;;;;;7.00;62.00;;;;;;5049090;28;19917;-82
2022/03/20 08:04:08;;;;;;;;;;;7.10;62.30;;;;;;5062457;28;19952;-82
2022/03/20 08:06:34;;;;;;;;;;;7.00;62.10;;;;;;5066149;28;19913;-82
2022/03/20 08:09:00;;;;;;;;;;;7.00;61.30;;;;;;5067846;28;19920;-82
2022/03/20 08:11:29;;;;;;;;;;;7.00;62.10;;;;;;5055029;28;19928;-86
2022/03/20 08:13:55;;;;;;;;;;;6.90;63.00;;;;;;5039690;28;19921;-82
2022/03/20 08:16:22;;;;;;;;;;;6.80;63.40;;;;;;5056571;28;19920;-82
2022/03/20 08:18:48;;;;;;;;;;;6.70;64.40;;;;;;5048830;28;20394;-82
2022/03/20 08:21:14;;;;;;;;;;;6.80;65.00;;;;;;5063305;28;20369;-83
2022/03/20 08:23:42;;;;;;;;;;;6.80;65.10;;;;;;5042974;28;19920;-83
2022/03/20 08:26:11;;;;;;;;;;;6.80;65.10;;;;;;5057955;28;19966;-84
2022/03/20 08:28:45;;;;;;;;;;;6.90;65.50;;;;;;5056227;28;19916;-84
2022/03/20 08:31:10;;;;;;;;;;;7.00;65.70;;;;;;5048025;28;19913;-84
2022/03/20 08:33:36;;;;;;;;;;;7.20;65.90;;;;;;5052204;28;20406;-84
2022/03/20 08:36:03;;;;;;;;;;;7.40;66.10;;;;;;5056435;28;19913;-84
2022/03/20 08:38:35;;;;;;;;;;;7.60;65.90;;;;;;5053717;28;20003;-83
2022/03/20 08:41:01;;;;;;;;;;;7.70;65.60;;;;;;5050907;28;19928;-83
2022/03/20 08:43:27;;;;;;;;;;;7.90;65.60;;;;;;5056087;28;20390;-83
2022/03/20 08:45:52;;;;;;;;;;;8.10;65.20;;;;;;5048599;28;19980;-83
2022/03/20 08:48:18;;;;;;;;;;;8.20;65.50;;;;;;5051331;28;19920;-82
2022/03/20 08:50:48;;;;;;;;;;;8.30;65.50;;;;;;5058689;28;19924;-82
2022/03/20 08:53:17;;;;;;;;;;;8.40;65.90;;;;;;5054464;28;19913;-82
2022/03/20 08:55:44;;;;;;;;;;;8.40;66.40;;;;;;5061811;28;19913;-82
2022/03/20 08:58:10;;;;;;;;;;;8.50;67.00;;;;;;5050076;28;19912;-82
2022/03/20 09:00:35;;;;;;;;;;;8.50;67.50;;;;;;5034236;28;20016;-81
2022/03/20 09:03:01;;;;;;;;;;;8.60;68.60;;;;;;5048280;28;19917;-82
2022/03/20 09:05:26;;;;;;;;;;;8.70;69.90;;;;;;5030669;28;20287;-82
2022/03/20 09:07:53;;;;;;;;;;;8.80;71.50;;;;;;5059758;28;19916;-82
2022/03/20 09:10:19;;;;;;;;;;;8.90;74.40;;;;;;5063081;28;19918;-82
2022/03/20 09:12:45;;;;;;;;;;;8.90;75.60;;;;;;5037174;28;20007;-82
2022/03/20 09:15:12;;;;;;;;;;;9.00;76.50;;;;;;5045479;28;19916;-82
2022/03/20 09:20:22;;;;;;;;;;;9.50;76.90;;;;;;5036961;28;19923;-82
2022/03/20 09:22:48;;;;;;;;;;;9.90;76.50;;;;;;5058408;28;19909;-82
2022/03/20 09:25:14;;;;;;;;;;;10.10;73.70;;;;;;5053203;28;19921;-82
2022/03/20 09:27:39;;;;;;;;;;;10.30;73.00;;;;;;5053819;28;20023;-81
2022/03/20 09:30:05;;;;;;;;;;;10.40;71.50;;;;;;5049965;28;19913;-82
2022/03/20 09:32:31;;;;;;;;;;;10.40;70.30;;;;;;5049358;28;19909;-82
2022/03/20 09:34:56;;;;;;;;;;;10.40;69.50;;;;;;5037252;28;20582;-82
2022/03/20 09:37:22;;;;;;;;;;;10.30;69.40;;;;;;5036522;28;19914;-81
2022/03/20 09:39:47;;;;;;;;;;;10.20;69.50;;;;;;5030777;28;19928;-81
2022/03/20 09:42:13;;;;;;;;;;;10.10;70.20;;;;;;5049520;28;19909;-81
2022/03/20 09:44:39;;;;;;;;;;;10.10;70.30;;;;;;5050929;28;19917;-81
2022/03/20 09:47:12;;;;;;;;;;;10.10;69.80;;;;;;5051140;28;19909;-82
2022/03/20 09:49:38;;;;;;;;;;;10.10;69.60;;;;;;5059376;28;19924;-82
2022/03/20 09:52:05;;;;;;;;;;;10.10;69.50;;;;;;5077670;28;19916;-82
2022/03/20 09:54:31;;;;;;;;;;;10.10;68.80;;;;;;5053799;28;19913;-82
2022/03/20 09:56:57;;;;;;;;;;;10.10;68.90;;;;;;5044704;28;19971;-82
2022/03/20 09:59:23;;;;;;;;;;;10.20;69.30;;;;;;5033574;28;19971;-81
2022/03/20 10:01:49;;;;;;;;;;;10.20;69.00;;;;;;5017697;28;20132;-82
2022/03/20 10:04:16;;;;;;;;;;;10.10;69.10;;;;;;5049994;28;19927;-82
2022/03/20 10:06:42;;;;;;;;;;;10.10;69.90;;;;;;5057184;28;19993;-82
2022/03/20 10:09:09;;;;;;;;;;;10.00;70.80;;;;;;5042457;28;20417;-81
2022/03/20 10:11:38;;;;;;;;;;;9.90;71.20;;;;;;5048078;28;19992;-82
2022/03/20 10:14:20;;;;;;;;;;;9.90;73.30;;;;;;5035392;28;20378;-81
2022/03/20 10:16:53;;;;;;;;;;;9.80;74.50;;;;;;5066260;28;19913;-82
2022/03/20 10:19:25;;;;;;;;;;;9.90;75.90;;;;;;5053361;28;20050;-81
2022/03/20 10:21:52;;;;;;;;;;;10.00;75.80;;;;;;5032160;28;20429;-81
2022/03/20 10:24:18;;;;;;;;;;;10.10;76.00;;;;;;5061332;28;20062;-81
2022/03/20 10:26:45;;;;;;;;;;;10.20;76.00;;;;;;5040222;28;20078;-81
2022/03/20 10:29:15;;;;;;;;;;;10.40;75.70;;;;;;5056045;28;19928;-82
2022/03/20 10:31:48;;;;;;;;;;;10.60;74.90;;;;;;5017511;28;19936;-81
2022/03/20 10:34:14;;;;;;;;;;;10.80;74.30;;;;;;5049927;28;19991;-81
2022/03/20 10:36:41;;;;;;;;;;;10.90;73.40;;;;;;5052380;28;19960;-81
2022/03/20 10:39:11;;;;;;;;;;;10.90;73.30;;;;;;5036669;28;19916;-82
2022/03/20 10:41:38;;;;;;;;;;;10.90;73.60;;;;;;5050845;28;19943;-81
2022/03/20 10:44:15;;;;;;;;;;;10.80;73.90;;;;;;5065521;28;19913;-81
2022/03/20 10:46:41;;;;;;;;;;;10.80;75.30;;;;;;5052876;28;19921;-81
2022/03/20 10:49:07;;;;;;;;;;;10.70;76.40;;;;;;5054143;28;19924;-81
2022/03/20 10:51:39;;;;;;;;;;;10.80;76.50;;;;;;5043301;28;19943;-81
2022/03/20 10:54:20;;;;;;;;;;;10.90;76.50;;;;;;5100232;23;19975;-84
2022/03/20 10:57:00;;;;;;;;;;;11.10;75.50;;;;;;5072099;28;19960;-83
2022/03/20 10:59:26;;;;;;;;;;;11.30;73.40;;;;;;5091390;28;19919;-83
2022/03/20 11:01:52;;;;;;;;;;;11.40;73.10;;;;;;5053492;28;19923;-84
2022/03/20 11:04:19;;;;;;;;;;;11.40;71.90;;;;;;5073104;28;19988;-84
2022/03/20 11:06:48;;;;;;;;;;;11.40;71.60;;;;;;5081852;28;19958;-83
2022/03/20 11:09:13;;;;;;;;;;;11.40;72.20;;;;;;5079935;28;20369;-84
2022/03/20 11:11:42;;;;;;;;;;;11.60;72.30;;;;;;5072674;28;20005;-85
2022/03/20 11:14:08;;;;;;;;;;;11.80;68.90;;;;;;5084399;28;19922;-84
2022/03/20 11:16:38;;;;;;;;;;;12.10;70.00;;;;;;5092464;28;19916;-83
2022/03/20 11:19:05;;;;;;;;;;;12.40;68.10;;;;;;5080978;28;19916;-84
2022/03/20 11:21:33;;;;;;;;;;;12.70;66.60;;;;;;5076587;28;20284;-84
2022/03/20 11:23:59;;;;;;;;;;;12.90;63.50;;;;;;5074460;28;19919;-84
2022/03/20 11:26:25;;;;;;;;;;;12.90;62.90;;;;;;5066769;28;19924;-84
2022/03/20 11:28:54;;;;;;;;;;;12.90;63.60;;;;;;5082142;28;19920;-84
2022/03/20 11:31:21;;;;;;;;;;;12.70;64.40;;;;;;5081793;28;19991;-84
2022/03/20 11:33:47;;;;;;;;;;;12.70;64.70;;;;;;5080706;28;19916;-83
2022/03/20 11:36:13;;;;;;;;;;;12.70;65.40;;;;;;5082284;28;20325;-84
2022/03/20 11:38:38;;;;;;;;;;;12.70;66.90;;;;;;5075493;28;19916;-83
2022/03/20 11:41:03;;;;;;;;;;;12.70;65.90;;;;;;5083393;28;19932;-84
2022/03/20 11:43:29;;;;;;;;;;;12.80;65.40;;;;;;5075604;28;19962;-84
2022/03/20 11:46:13;;;;;;;;;;;12.80;65.10;;;;;;5081597;28;19928;-84
2022/03/20 11:48:38;;;;;;;;;;;12.80;64.10;;;;;;5081914;28;19916;-84
2022/03/20 11:51:04;;;;;;;;;;;12.90;63.70;;;;;;5081741;28;19923;-84
2022/03/20 11:53:31;;;;;;;;;;;12.90;63.60;;;;;;5068974;28;20381;-84
2022/03/20 11:55:57;;;;;;;;;;;12.90;62.80;;;;;;5086194;28;19920;-84
2022/03/20 11:58:24;;;;;;;;;;;12.90;62.80;;;;;;5078454;28;19935;-84
2022/03/20 12:01:02;;;;;;;;;;;13.00;62.80;;;;;;5093597;28;19958;-84
2022/03/20 12:03:43;;;;;;;;;;;13.10;62.30;;;;;;5080304;28;19916;-84
2022/03/20 12:06:25;;;;;;;;;;;13.00;61.30;;;;;;5096123;28;19952;-83
2022/03/20 12:09:01;;;;;;;;;;;13.00;61.00;;;;;;5079834;28;19916;-84
2022/03/20 12:11:26;;;;;;;;;;;12.90;61.90;;;;;;5082147;28;19912;-84
2022/03/20 12:14:11;;;;;;;;;;;12.90;62.10;;;;;;5071716;28;19919;-84
2022/03/20 12:16:49;;;;;;;;;;;12.90;62.20;;;;;;5077101;28;19917;-84
2022/03/20 12:19:15;;;;;;;;;;;13.00;62.60;;;;;;5091257;28;19928;-84
2022/03/20 12:21:53;;;;;;;;;;;13.10;63.50;;;;;;5074718;28;19919;-84
2022/03/20 12:24:34;;;;;;;;;;;13.20;62.20;;;;;;5084263;28;19962;-84
2022/03/20 12:27:29;;;;;;;;;;;13.40;60.80;;;;;;5084315;28;19913;-84
2022/03/20 12:29:59;;;;;;;;;;;13.40;59.20;;;;;;5068612;28;19920;-84
2022/03/20 12:32:25;;;;;;;;;;;13.50;59.00;;;;;;5081497;28;20366;-84
2022/03/20 12:34:58;;;;;;;;;;;13.50;58.20;;;;;;5067094;28;19912;-83
2022/03/20 12:37:27;;;;;;;;;;;13.50;58.20;;;;;;5078838;28;19920;-84
2022/03/20 12:39:54;;;;;;;;;;;13.50;58.40;;;;;;5071923;28;19912;-83
2022/03/20 12:42:24;;;;;;;;;;;13.30;58.40;;;;;;5082300;28;20862;-84
2022/03/20 12:44:50;;;;;;;;;;;13.30;58.20;;;;;;5074365;28;19932;-84
2022/03/20 12:47:17;;;;;;;;;;;13.20;58.00;;;;;;5083800;28;19921;-84
2022/03/20 12:49:42;;;;;;;;;;;13.20;58.30;;;;;;5081785;28;21173;-84
2022/03/20 12:52:08;;;;;;;;;;;13.30;58.30;;;;;;5070277;28;20444;-84
2022/03/20 12:54:35;;;;;;;;;;;13.40;58.10;;;;;;5065795;28;19929;-85
2022/03/20 12:57:03;;;;;;;;;;;13.50;57.80;;;;;;5057669;28;20403;-84
2022/03/20 12:59:29;;;;;;;;;;;13.70;57.50;;;;;;5065483;28;19912;-83
2022/03/20 13:01:55;;;;;;;;;;;14.00;57.50;;;;;;5060203;28;20016;-84
2022/03/20 13:04:21;;;;;;;;;;;14.40;57.20;;;;;;5077915;28;20418;-84
2022/03/20 13:06:47;;;;;;;;;;;14.60;55.50;;;;;;5073179;28;19974;-84
2022/03/20 13:09:13;;;;;;;;;;;14.70;54.70;;;;;;5086180;28;19968;-84
2022/03/20 13:11:56;;;;;;;;;;;14.70;54.10;;;;;;5084014;28;20363;-84
2022/03/20 13:14:23;;;;;;;;;;;14.70;53.90;;;;;;5082686;28;19913;-84
2022/03/20 13:16:50;;;;;;;;;;;14.70;53.90;;;;;;5077198;28;20007;-84
2022/03/20 13:19:26;;;;;;;;;;;14.80;54.70;;;;;;5087838;28;20356;-83
2022/03/20 13:21:51;;;;;;;;;;;15.00;54.20;;;;;;5056101;28;20035;-83
2022/03/20 13:24:33;;;;;;;;;;;15.10;54.20;;;;;;5056324;28;20424;-84
2022/03/20 13:27:00;;;;;;;;;;;15.10;53.00;;;;;;5075944;28;19935;-85
2022/03/20 13:29:25;;;;;;;;;;;15.20;53.10;;;;;;5083760;28;19924;-83
2022/03/20 13:32:20;;;;;;;;;;;15.30;52.80;;;;;;5074876;28;20355;-83
2022/03/20 13:34:47;;;;;;;;;;;15.30;52.40;;;;;;5081951;28;20324;-83
2022/03/20 13:37:14;;;;;;;;;;;15.10;52.10;;;;;;5072813;28;20400;-83
2022/03/20 13:39:47;;;;;;;;;;;15.00;51.20;;;;;;5068933;28;20335;-83
2022/03/20 13:42:17;;;;;;;;;;;14.80;52.00;;;;;;5077918;28;19920;-83
2022/03/20 13:44:43;;;;;;;;;;;14.70;52.40;;;;;;5084451;28;20189;-83
2022/03/20 13:47:10;;;;;;;;;;;14.60;52.70;;;;;;5070942;28;20289;-83
2022/03/20 13:49:36;;;;;;;;;;;14.70;53.10;;;;;;5069944;28;20388;-83
2022/03/20 13:52:01;;;;;;;;;;;14.70;53.30;;;;;;5069966;28;19912;-83
2022/03/20 13:54:29;;;;;;;;;;;14.80;53.50;;;;;;5057181;28;19925;-83
2022/03/20 13:57:09;;;;;;;;;;;14.80;51.90;;;;;;5059118;28;19955;-83
2022/03/20 14:00:08;;;;;;;;;;;14.80;51.90;;;;;;5079567;28;19928;-84
2022/03/20 14:02:52;;;;;;;;;;;14.70;51.80;;;;;;5054512;28;19971;-83
2022/03/20 14:05:21;;;;;;;;;;;14.70;51.90;;;;;;5073446;28;19916;-83
2022/03/20 14:07:47;;;;;;;;;;;14.70;52.30;;;;;;5066808;28;19920;-83
2022/03/20 14:10:17;;;;;;;;;;;14.70;52.30;;;;;;5077699;28;19923;-83
2022/03/20 14:12:42;;;;;;;;;;;14.70;52.40;;;;;;5080514;28;19999;-84
2022/03/20 14:15:09;;;;;;;;;;;14.60;53.00;;;;;;5050520;28;20357;-83
2022/03/20 14:17:41;;;;;;;;;;;14.60;52.50;;;;;;5063321;28;19982;-83
2022/03/20 14:20:11;;;;;;;;;;;14.40;52.00;;;;;;5076676;28;20455;-83
2022/03/20 14:22:45;;;;;;;;;;;14.40;51.80;;;;;;5080514;28;19912;-83
2022/03/20 14:25:28;;;;;;;;;;;14.40;52.00;;;;;;5051235;28;19917;-83
2022/03/20 14:27:57;;;;;;;;;;;14.40;52.50;;;;;;5072325;28;19923;-84
2022/03/20 14:41:25;;;;;;;;;;;14.40;51.50;;;;;;5068645;28;19970;-84
2022/03/20 14:44:12;;;;;;;;;;;14.40;51.00;;;;;;5068385;28;19921;-85
2022/03/20 14:46:39;;;;;;;;;;;14.50;51.80;;;;;;5073376;28;19916;-84
2022/03/20 14:49:05;;;;;;;;;;;14.50;51.70;;;;;;5080209;28;19924;-84
2022/03/20 14:51:30;;;;;;;;;;;14.60;51.00;;;;;;5089255;28;19916;-84
2022/03/20 14:53:56;;;;;;;;;;;14.60;51.20;;;;;;5073371;28;20337;-84
2022/03/20 14:56:22;;;;;;;;;;;14.60;51.30;;;;;;5090062;28;19951;-83
2022/03/20 14:58:48;;;;;;;;;;;14.60;51.70;;;;;;5072065;28;20361;-84
2022/03/20 15:01:16;;;;;;;;;;;14.40;51.70;;;;;;5078172;28;19916;-84
2022/03/20 15:03:42;;;;;;;;;;;14.30;52.00;;;;;;5058442;28;19928;-84
2022/03/20 15:06:08;;;;;;;;;;;14.30;52.70;;;;;;5090195;28;19999;-84
2022/03/20 15:11:24;;;;;;;;;;;14.20;52.70;;;;;;5078226;28;19923;-84
2022/03/20 15:13:50;;;;;;;;;;;14.20;52.80;;;;;;5076495;28;20373;-85